Aviation Digital Data Service (ADDS)

Output produced by METARs form (1823 UTC 18 April 2019)
found at http://www.aviationweather.gov/metar/data/
 
METAR text: VDPP 181730Z 17005KT 9000 FEW017 30/26 Q1008
Conditions at: VDPP (PHNOM-PENH/POCHE, KH) observed 1730 UTC 18 April 2019
Temperature: 30.0°C (86°F)
Dewpoint: 26.0°C (79°F) [RH = 79%]
Pressure (altimeter): 29.76 inches Hg (1008.0 mb)
Winds: from the S (170 degrees) at 6 MPH (5 knots; 2.6 m/s)
Visibility: 6 miles ( 9 km)
Ceiling: at least 12,000 feet AGL
Clouds: few clouds at 1700 feet AGL
Weather: no significant weather observed at this time

METAR text: VDPP 181700Z 17005KT 9000 FEW017 30/26 Q1008
Conditions at: VDPP (PHNOM-PENH/POCHE, KH) observed 1700 UTC 18 April 2019
Temperature: 30.0°C (86°F)
Dewpoint: 26.0°C (79°F) [RH = 79%]
Pressure (altimeter): 29.76 inches Hg (1008.0 mb)
Winds: from the S (170 degrees) at 6 MPH (5 knots; 2.6 m/s)
Visibility: 6 miles ( 9 km)
Ceiling: at least 12,000 feet AGL
Clouds: few clouds at 1700 feet AGL
Weather: no significant weather observed at this time

METAR text: VDPP 181630Z 18006KT 9000 FEW017 30/25 Q1008
Conditions at: VDPP (PHNOM-PENH/POCHE, KH) observed 1630 UTC 18 April 2019
Temperature: 30.0°C (86°F)
Dewpoint: 25.0°C (77°F) [RH = 75%]
Pressure (altimeter): 29.76 inches Hg (1008.0 mb)
Winds: from the S (180 degrees) at 7 MPH (6 knots; 3.1 m/s)
Visibility: 6 miles ( 9 km)
Ceiling: at least 12,000 feet AGL
Clouds: few clouds at 1700 feet AGL
Weather: no significant weather observed at this time

METAR text: VDPP 181600Z 19006KT 9000 FEW017 31/25 Q1008
Conditions at: VDPP (PHNOM-PENH/POCHE, KH) observed 1600 UTC 18 April 2019
Temperature: 31.0°C (88°F)
Dewpoint: 25.0°C (77°F) [RH = 71%]
Pressure (altimeter): 29.76 inches Hg (1008.0 mb)
Winds: from the S (190 degrees) at 7 MPH (6 knots; 3.1 m/s)
Visibility: 6 miles ( 9 km)
Ceiling: at least 12,000 feet AGL
Clouds: few clouds at 1700 feet AGL
Weather: no significant weather observed at this time

METAR text: VDPP 181530Z 21005KT 9000 FEW017 31/25 Q1008
Conditions at: VDPP (PHNOM-PENH/POCHE, KH) observed 1530 UTC 18 April 2019
Temperature: 31.0°C (88°F)
Dewpoint: 25.0°C (77°F) [RH = 71%]
Pressure (altimeter): 29.76 inches Hg (1008.0 mb)
Winds: from the SSW (210 degrees) at 6 MPH (5 knots; 2.6 m/s)
Visibility: 6 miles ( 9 km)
Ceiling: at least 12,000 feet AGL
Clouds: few clouds at 1700 feet AGL
Weather: no significant weather observed at this time

METAR text: VDPP 181500Z 19005KT 9000 SCT017 31/25 Q1008
Conditions at: VDPP (PHNOM-PENH/POCHE, KH) observed 1500 UTC 18 April 2019
Temperature: 31.0°C (88°F)
Dewpoint: 25.0°C (77°F) [RH = 71%]
Pressure (altimeter): 29.76 inches Hg (1008.0 mb)
Winds: from the S (190 degrees) at 6 MPH (5 knots; 2.6 m/s)
Visibility: 6 miles ( 9 km)
Ceiling: at least 12,000 feet AGL
Clouds: scattered clouds at 1700 feet AGL
Weather: no significant weather observed at this time

METAR text: VDPP 181430Z 19006KT 9000 SCT017 31/24 Q1008
Conditions at: VDPP (PHNOM-PENH/POCHE, KH) observed 1430 UTC 18 April 2019
Temperature: 31.0°C (88°F)
Dewpoint: 24.0°C (75°F) [RH = 66%]
Pressure (altimeter): 29.76 inches Hg (1008.0 mb)
Winds: from the S (190 degrees) at 7 MPH (6 knots; 3.1 m/s)
Visibility: 6 miles ( 9 km)
Ceiling: at least 12,000 feet AGL
Clouds: scattered clouds at 1700 feet AGL
Weather: no significant weather observed at this time

METAR text: VDPP 181400Z 20007KT 9000 SCT017 32/24 Q1007
Conditions at: VDPP (PHNOM-PENH/POCHE, KH) observed 1400 UTC 18 April 2019
Temperature: 32.0°C (90°F)
Dewpoint: 24.0°C (75°F) [RH = 63%]
Pressure (altimeter): 29.73 inches Hg (1007.0 mb)
Winds: from the SSW (200 degrees) at 8 MPH (7 knots; 3.6 m/s)
Visibility: 6 miles ( 9 km)
Ceiling: at least 12,000 feet AGL
Clouds: scattered clouds at 1700 feet AGL
Weather: no significant weather observed at this time

METAR text: VDPP 181330Z 24007KT 9000 SCT017 32/24 Q1007
Conditions at: VDPP (PHNOM-PENH/POCHE, KH) observed 1330 UTC 18 April 2019
Temperature: 32.0°C (90°F)
Dewpoint: 24.0°C (75°F) [RH = 63%]
Pressure (altimeter): 29.73 inches Hg (1007.0 mb)
Winds: from the WSW (240 degrees) at 8 MPH (7 knots; 3.6 m/s)
Visibility: 6 miles ( 9 km)
Ceiling: at least 12,000 feet AGL
Clouds: scattered clouds at 1700 feet AGL
Weather: no significant weather observed at this time

METAR text: VDPP 181300Z 23007KT 9000 SCT017 32/24 Q1006
Conditions at: VDPP (PHNOM-PENH/POCHE, KH) observed 1300 UTC 18 April 2019
Temperature: 32.0°C (90°F)
Dewpoint: 24.0°C (75°F) [RH = 63%]
Pressure (altimeter): 29.70 inches Hg (1006.0 mb)
Winds: from the SW (230 degrees) at 8 MPH (7 knots; 3.6 m/s)
Visibility: 6 miles ( 9 km)
Ceiling: at least 12,000 feet AGL
Clouds: scattered clouds at 1700 feet AGL
Weather: no significant weather observed at this time

METAR text: VDPP 181230Z 22010KT 9000 SCT015 FEW017CB 33/24 Q1006 CB:E
Conditions at: VDPP (PHNOM-PENH/POCHE, KH) observed 1230 UTC 18 April 2019
Temperature: 33.0°C (91°F)
Dewpoint: 24.0°C (75°F) [RH = 59%]
Pressure (altimeter): 29.70 inches Hg (1006.0 mb)
Winds: from the SW (220 degrees) at 12 MPH (10 knots; 5.1 m/s)
Visibility: 6 miles ( 9 km)
Ceiling: at least 12,000 feet AGL
Clouds: scattered clouds at 1500 feet AGL
few clouds at 1700 feet AGL
Weather: no significant weather observed at this time

METAR text: VDPP 181200Z 18009KT 9999 SCT015 FEW017CB 34/23 Q1005 CB:E
Conditions at: VDPP (PHNOM-PENH/POCHE, KH) observed 1200 UTC 18 April 2019
Temperature: 34.0°C (93°F)
Dewpoint: 23.0°C (73°F) [RH = 53%]
Pressure (altimeter): 29.68 inches Hg (1005.0 mb)
Winds: from the S (180 degrees) at 10 MPH (9 knots; 4.6 m/s)
Visibility: 6 or more miles (10+ km)
Ceiling: at least 12,000 feet AGL
Clouds: scattered clouds at 1500 feet AGL
few clouds at 1700 feet AGL
Weather: no significant weather observed at this time

METAR text: VDPP 181130Z 16008KT 9999 SCT015 FEW017CB 35/23 Q1005 CB:E
Conditions at: VDPP (PHNOM-PENH/POCHE, KH) observed 1130 UTC 18 April 2019
Temperature: 35.0°C (95°F)
Dewpoint: 23.0°C (73°F) [RH = 50%]
Pressure (altimeter): 29.68 inches Hg (1005.0 mb)
Winds: from the SSE (160 degrees) at 9 MPH (8 knots; 4.1 m/s)
Visibility: 6 or more miles (10+ km)
Ceiling: at least 12,000 feet AGL
Clouds: scattered clouds at 1500 feet AGL
few clouds at 1700 feet AGL
Weather: no significant weather observed at this time

METAR text: VDPP 181100Z 17008KT 9999 SCT015 FEW017CB 35/24 Q1005 CB:E/NW
Conditions at: VDPP (PHNOM-PENH/POCHE, KH) observed 1100 UTC 18 April 2019
Temperature: 35.0°C (95°F)
Dewpoint: 24.0°C (75°F) [RH = 53%]
Pressure (altimeter): 29.68 inches Hg (1005.0 mb)
Winds: from the S (170 degrees) at 9 MPH (8 knots; 4.1 m/s)
Visibility: 6 or more miles (10+ km)
Ceiling: at least 12,000 feet AGL
Clouds: scattered clouds at 1500 feet AGL
few clouds at 1700 feet AGL
Weather: no significant weather observed at this time

METAR text: VDPP 181030Z 16007KT 9999 SCT015 FEW017CB 35/22 Q1005 CB:E/NW
Conditions at: VDPP (PHNOM-PENH/POCHE, KH) observed 1030 UTC 18 April 2019
Temperature: 35.0°C (95°F)
Dewpoint: 22.0°C (72°F) [RH = 47%]
Pressure (altimeter): 29.68 inches Hg (1005.0 mb)
Winds: from the SSE (160 degrees) at 8 MPH (7 knots; 3.6 m/s)
Visibility: 6 or more miles (10+ km)
Ceiling: at least 12,000 feet AGL
Clouds: scattered clouds at 1500 feet AGL
few clouds at 1700 feet AGL
Weather: no significant weather observed at this time

METAR text: VDPP 181000Z 16008KT 9999 SCT015 FEW017CB 35/23 Q1005 CB:NW
Conditions at: VDPP (PHNOM-PENH/POCHE, KH) observed 1000 UTC 18 April 2019
Temperature: 35.0°C (95°F)
Dewpoint: 23.0°C (73°F) [RH = 50%]
Pressure (altimeter): 29.68 inches Hg (1005.0 mb)
Winds: from the SSE (160 degrees) at 9 MPH (8 knots; 4.1 m/s)
Visibility: 6 or more miles (10+ km)
Ceiling: at least 12,000 feet AGL
Clouds: scattered clouds at 1500 feet AGL
few clouds at 1700 feet AGL
Weather: no significant weather observed at this time

METAR text: VDPP 180930Z 15009KT 110V190 9999 SCT017 FEW020CB 36/23 Q1005 CB:E
Conditions at: VDPP (PHNOM-PENH/POCHE, KH) observed 0930 UTC 18 April 2019
Temperature: 36.0°C (97°F)
Dewpoint: 23.0°C (73°F) [RH = 47%]
Pressure (altimeter): 29.68 inches Hg (1005.0 mb)
Winds: from the SSE (150 degrees) at 10 MPH (9 knots; 4.6 m/s)
Visibility: 6 or more miles (10+ km)
Ceiling: at least 12,000 feet AGL
Clouds: scattered clouds at 1700 feet AGL
few clouds at 2000 feet AGL
Weather: no significant weather observed at this time

METAR text: VDPP 180900Z 18010KT 150V210 9999 SCT017 FEW020CB 36/22 Q1005 CB:E
Conditions at: VDPP (PHNOM-PENH/POCHE, KH) observed 0900 UTC 18 April 2019
Temperature: 36.0°C (97°F)
Dewpoint: 22.0°C (72°F) [RH = 45%]
Pressure (altimeter): 29.68 inches Hg (1005.0 mb)
Winds: from the S (180 degrees) at 12 MPH (10 knots; 5.1 m/s)
Visibility: 6 or more miles (10+ km)
Ceiling: at least 12,000 feet AGL
Clouds: scattered clouds at 1700 feet AGL
few clouds at 2000 feet AGL
Weather: no significant weather observed at this time

METAR text: VDPP 180830Z 21008KT 130V220 9999 SCT017 FEW020CB 36/24 Q1005 CB:E
Conditions at: VDPP (PHNOM-PENH/POCHE, KH) observed 0830 UTC 18 April 2019
Temperature: 36.0°C (97°F)
Dewpoint: 24.0°C (75°F) [RH = 50%]
Pressure (altimeter): 29.68 inches Hg (1005.0 mb)
Winds: from the SSW (210 degrees) at 9 MPH (8 knots; 4.1 m/s)
Visibility: 6 or more miles (10+ km)
Ceiling: at least 12,000 feet AGL
Clouds: scattered clouds at 1700 feet AGL
few clouds at 2000 feet AGL
Weather: no significant weather observed at this time

METAR text: VDPP 180800Z 18008KT 110V220 9999 SCT017 FEW020CB 37/24 Q1005 CB:E
Conditions at: VDPP (PHNOM-PENH/POCHE, KH) observed 0800 UTC 18 April 2019
Temperature: 37.0°C (99°F)
Dewpoint: 24.0°C (75°F) [RH = 48%]
Pressure (altimeter): 29.68 inches Hg (1005.0 mb)
Winds: from the S (180 degrees) at 9 MPH (8 knots; 4.1 m/s)
Visibility: 6 or more miles (10+ km)
Ceiling: at least 12,000 feet AGL
Clouds: scattered clouds at 1700 feet AGL
few clouds at 2000 feet AGL
Weather: no significant weather observed at this time

METAR text: VDPP 180730Z 17010KT 110V200 9999 SCT017 37/24 Q1005
Conditions at: VDPP (PHNOM-PENH/POCHE, KH) observed 0730 UTC 18 April 2019
Temperature: 37.0°C (99°F)
Dewpoint: 24.0°C (75°F) [RH = 48%]
Pressure (altimeter): 29.68 inches Hg (1005.0 mb)
Winds: from the S (170 degrees) at 12 MPH (10 knots; 5.1 m/s)
Visibility: 6 or more miles (10+ km)
Ceiling: at least 12,000 feet AGL
Clouds: scattered clouds at 1700 feet AGL
Weather: no significant weather observed at this time

METAR text: VDPP 180700Z 16012KT 120V190 9999 SCT017 37/24 Q1006
Conditions at: VDPP (PHNOM-PENH/POCHE, KH) observed 0700 UTC 18 April 2019
Temperature: 37.0°C (99°F)
Dewpoint: 24.0°C (75°F) [RH = 48%]
Pressure (altimeter): 29.70 inches Hg (1006.0 mb)
Winds: from the SSE (160 degrees) at 14 MPH (12 knots; 6.2 m/s)
Visibility: 6 or more miles (10+ km)
Ceiling: at least 12,000 feet AGL
Clouds: scattered clouds at 1700 feet AGL
Weather: no significant weather observed at this time

METAR text: VDPP 180630Z 16010KT 120V190 9999 SCT017 36/23 Q1007
Conditions at: VDPP (PHNOM-PENH/POCHE, KH) observed 0630 UTC 18 April 2019
Temperature: 36.0°C (97°F)
Dewpoint: 23.0°C (73°F) [RH = 47%]
Pressure (altimeter): 29.73 inches Hg (1007.0 mb)
Winds: from the SSE (160 degrees) at 12 MPH (10 knots; 5.1 m/s)
Visibility: 6 or more miles (10+ km)
Ceiling: at least 12,000 feet AGL
Clouds: scattered clouds at 1700 feet AGL
Weather: no significant weather observed at this time

METAR text: VDPP 180600Z 14011KT 100V170 9999 SCT017 37/23 Q1008
Conditions at: VDPP (PHNOM-PENH/POCHE, KH) observed 0600 UTC 18 April 2019
Temperature: 37.0°C (99°F)
Dewpoint: 23.0°C (73°F) [RH = 45%]
Pressure (altimeter): 29.76 inches Hg (1008.0 mb)
Winds: from the SE (140 degrees) at 13 MPH (11 knots; 5.7 m/s)
Visibility: 6 or more miles (10+ km)
Ceiling: at least 12,000 feet AGL
Clouds: scattered clouds at 1700 feet AGL
Weather: no significant weather observed at this time

METAR text: VDPP 180530Z 18008KT 120V230 9999 SCT017 36/24 Q1008
Conditions at: VDPP (PHNOM-PENH/POCHE, KH) observed 0530 UTC 18 April 2019
Temperature: 36.0°C (97°F)
Dewpoint: 24.0°C (75°F) [RH = 50%]
Pressure (altimeter): 29.76 inches Hg (1008.0 mb)
Winds: from the S (180 degrees) at 9 MPH (8 knots; 4.1 m/s)
Visibility: 6 or more miles (10+ km)
Ceiling: at least 12,000 feet AGL
Clouds: scattered clouds at 1700 feet AGL
Weather: no significant weather observed at this time

METAR text: VDPP 180500Z 14009KT 110V220 9999 SCT017 36/25 Q1009
Conditions at: VDPP (PHNOM-PENH/POCHE, KH) observed 0500 UTC 18 April 2019
Temperature: 36.0°C (97°F)
Dewpoint: 25.0°C (77°F) [RH = 53%]
Pressure (altimeter): 29.79 inches Hg (1009.0 mb)
Winds: from the SE (140 degrees) at 10 MPH (9 knots; 4.6 m/s)
Visibility: 6 or more miles (10+ km)
Ceiling: at least 12,000 feet AGL
Clouds: scattered clouds at 1700 feet AGL
Weather: no significant weather observed at this time

METAR text: VDPP 180430Z 14006KT 120V180 9999 SCT017 35/25 Q1009
Conditions at: VDPP (PHNOM-PENH/POCHE, KH) observed 0430 UTC 18 April 2019
Temperature: 35.0°C (95°F)
Dewpoint: 25.0°C (77°F) [RH = 56%]
Pressure (altimeter): 29.79 inches Hg (1009.0 mb)
Winds: from the SE (140 degrees) at 7 MPH (6 knots; 3.1 m/s)
Visibility: 6 or more miles (10+ km)
Ceiling: at least 12,000 feet AGL
Clouds: scattered clouds at 1700 feet AGL
Weather: no significant weather observed at this time

METAR text: VDPP 180400Z 12005KT 100V220 9999 SCT017 35/25 Q1010
Conditions at: VDPP (PHNOM-PENH/POCHE, KH) observed 0400 UTC 18 April 2019
Temperature: 35.0°C (95°F)
Dewpoint: 25.0°C (77°F) [RH = 56%]
Pressure (altimeter): 29.82 inches Hg (1010.0 mb)
Winds: from the ESE (120 degrees) at 6 MPH (5 knots; 2.6 m/s)
Visibility: 6 or more miles (10+ km)
Ceiling: at least 12,000 feet AGL
Clouds: scattered clouds at 1700 feet AGL
Weather: no significant weather observed at this time

METAR text: VDPP 180330Z 18005KT 130V220 9999 FEW017 34/25 Q1010
Conditions at: VDPP (PHNOM-PENH/POCHE, KH) observed 0330 UTC 18 April 2019
Temperature: 34.0°C (93°F)
Dewpoint: 25.0°C (77°F) [RH = 60%]
Pressure (altimeter): 29.82 inches Hg (1010.0 mb)
Winds: from the S (180 degrees) at 6 MPH (5 knots; 2.6 m/s)
Visibility: 6 or more miles (10+ km)
Ceiling: at least 12,000 feet AGL
Clouds: few clouds at 1700 feet AGL
Weather: no significant weather observed at this time

METAR text: VDPP 180300Z 19006KT 120V200 9999 FEW017 33/25 Q1010
Conditions at: VDPP (PHNOM-PENH/POCHE, KH) observed 0300 UTC 18 April 2019
Temperature: 33.0°C (91°F)
Dewpoint: 25.0°C (77°F) [RH = 63%]
Pressure (altimeter): 29.82 inches Hg (1010.0 mb)
Winds: from the S (190 degrees) at 7 MPH (6 knots; 3.1 m/s)
Visibility: 6 or more miles (10+ km)
Ceiling: at least 12,000 feet AGL
Clouds: few clouds at 1700 feet AGL
Weather: no significant weather observed at this time

METAR text: VDPP 180230Z 17009KT 9999 FEW017 33/26 Q1010
Conditions at: VDPP (PHNOM-PENH/POCHE, KH) observed 0230 UTC 18 April 2019
Temperature: 33.0°C (91°F)
Dewpoint: 26.0°C (79°F) [RH = 67%]
Pressure (altimeter): 29.82 inches Hg (1010.0 mb)
Winds: from the S (170 degrees) at 10 MPH (9 knots; 4.6 m/s)
Visibility: 6 or more miles (10+ km)
Ceiling: at least 12,000 feet AGL
Clouds: few clouds at 1700 feet AGL
Weather: no significant weather observed at this time

METAR text: VDPP 180200Z 16009KT 130V200 9999 FEW017 32/26 Q1010
Conditions at: VDPP (PHNOM-PENH/POCHE, KH) observed 0200 UTC 18 April 2019
Temperature: 32.0°C (90°F)
Dewpoint: 26.0°C (79°F) [RH = 71%]
Pressure (altimeter): 29.82 inches Hg (1010.0 mb)
Winds: from the SSE (160 degrees) at 10 MPH (9 knots; 4.6 m/s)
Visibility: 6 or more miles (10+ km)
Ceiling: at least 12,000 feet AGL
Clouds: few clouds at 1700 feet AGL
Weather: no significant weather observed at this time

METAR text: VDPP 180130Z 17009KT 9999 FEW017 31/26 Q1010
Conditions at: VDPP (PHNOM-PENH/POCHE, KH) observed 0130 UTC 18 April 2019
Temperature: 31.0°C (88°F)
Dewpoint: 26.0°C (79°F) [RH = 75%]
Pressure (altimeter): 29.82 inches Hg (1010.0 mb)
Winds: from the S (170 degrees) at 10 MPH (9 knots; 4.6 m/s)
Visibility: 6 or more miles (10+ km)
Ceiling: at least 12,000 feet AGL
Clouds: few clouds at 1700 feet AGL
Weather: no significant weather observed at this time

METAR text: VDPP 180100Z 16008KT 9999 FEW017 31/26 Q1010
Conditions at: VDPP (PHNOM-PENH/POCHE, KH) observed 0100 UTC 18 April 2019
Temperature: 31.0°C (88°F)
Dewpoint: 26.0°C (79°F) [RH = 75%]
Pressure (altimeter): 29.82 inches Hg (1010.0 mb)
Winds: from the SSE (160 degrees) at 9 MPH (8 knots; 4.1 m/s)
Visibility: 6 or more miles (10+ km)
Ceiling: at least 12,000 feet AGL
Clouds: few clouds at 1700 feet AGL
Weather: no significant weather observed at this time

METAR text: VDPP 180030Z 14008KT 120V180 9999 FEW017 31/26 Q1009
Conditions at: VDPP (PHNOM-PENH/POCHE, KH) observed 0030 UTC 18 April 2019
Temperature: 31.0°C (88°F)
Dewpoint: 26.0°C (79°F) [RH = 75%]
Pressure (altimeter): 29.79 inches Hg (1009.0 mb)
Winds: from the SE (140 degrees) at 9 MPH (8 knots; 4.1 m/s)
Visibility: 6 or more miles (10+ km)
Ceiling: at least 12,000 feet AGL
Clouds: few clouds at 1700 feet AGL
Weather: no significant weather observed at this time

METAR text: VDPP 180000Z 14005KT 9999 FEW017 30/26 Q1008
Conditions at: VDPP (PHNOM-PENH/POCHE, KH) observed 0000 UTC 18 April 2019
Temperature: 30.0°C (86°F)
Dewpoint: 26.0°C (79°F) [RH = 79%]
Pressure (altimeter): 29.76 inches Hg (1008.0 mb)
Winds: from the SE (140 degrees) at 6 MPH (5 knots; 2.6 m/s)
Visibility: 6 or more miles (10+ km)
Ceiling: at least 12,000 feet AGL
Clouds: few clouds at 1700 feet AGL
Weather: no significant weather observed at this time

METAR text: VDPP 172330Z VRB03KT 9000 FEW017 29/26 Q1008
Conditions at: VDPP (PHNOM-PENH/POCHE, KH) observed 2330 UTC 17 April 2019
Temperature: 29.0°C (84°F)
Dewpoint: 26.0°C (79°F) [RH = 84%]
Pressure (altimeter): 29.76 inches Hg (1008.0 mb)
Winds: variable direction winds at 3 MPH (3 knots; 1.5 m/s)
Visibility: 6 miles ( 9 km)
Ceiling: at least 12,000 feet AGL
Clouds: few clouds at 1700 feet AGL
Weather: no significant weather observed at this time

METAR text: VDPP 172300Z 14003KT 9000 FEW017 29/26 Q1008
Conditions at: VDPP (PHNOM-PENH/POCHE, KH) observed 2300 UTC 17 April 2019
Temperature: 29.0°C (84°F)
Dewpoint: 26.0°C (79°F) [RH = 84%]
Pressure (altimeter): 29.76 inches Hg (1008.0 mb)
Winds: from the SE (140 degrees) at 3 MPH (3 knots; 1.5 m/s)
Visibility: 6 miles ( 9 km)
Ceiling: at least 12,000 feet AGL
Clouds: few clouds at 1700 feet AGL
Weather: no significant weather observed at this time

METAR text: VDPP 172230Z 15003KT 9000 SCT017 29/26 Q1008
Conditions at: VDPP (PHNOM-PENH/POCHE, KH) observed 2230 UTC 17 April 2019
Temperature: 29.0°C (84°F)
Dewpoint: 26.0°C (79°F) [RH = 84%]
Pressure (altimeter): 29.76 inches Hg (1008.0 mb)
Winds: from the SSE (150 degrees) at 3 MPH (3 knots; 1.5 m/s)
Visibility: 6 miles ( 9 km)
Ceiling: at least 12,000 feet AGL
Clouds: scattered clouds at 1700 feet AGL
Weather: no significant weather observed at this time

METAR text: VDPP 172200Z 15003KT 9000 SCT017 29/26 Q1007
Conditions at: VDPP (PHNOM-PENH/POCHE, KH) observed 2200 UTC 17 April 2019
Temperature: 29.0°C (84°F)
Dewpoint: 26.0°C (79°F) [RH = 84%]
Pressure (altimeter): 29.73 inches Hg (1007.0 mb)
Winds: from the SSE (150 degrees) at 3 MPH (3 knots; 1.5 m/s)
Visibility: 6 miles ( 9 km)
Ceiling: at least 12,000 feet AGL
Clouds: scattered clouds at 1700 feet AGL
Weather: no significant weather observed at this time

METAR text: VDPP 172130Z VRB02KT 9000 SCT017 29/26 Q1007
Conditions at: VDPP (PHNOM-PENH/POCHE, KH) observed 2130 UTC 17 April 2019
Temperature: 29.0°C (84°F)
Dewpoint: 26.0°C (79°F) [RH = 84%]
Pressure (altimeter): 29.73 inches Hg (1007.0 mb)
Winds: variable direction winds at 2 MPH (2 knots; 1.0 m/s)
Visibility: 6 miles ( 9 km)
Ceiling: at least 12,000 feet AGL
Clouds: scattered clouds at 1700 feet AGL
Weather: no significant weather observed at this time

METAR text: VDPP 172100Z 15003KT 9000 SCT017 29/26 Q1007
Conditions at: VDPP (PHNOM-PENH/POCHE, KH) observed 2100 UTC 17 April 2019
Temperature: 29.0°C (84°F)
Dewpoint: 26.0°C (79°F) [RH = 84%]
Pressure (altimeter): 29.73 inches Hg (1007.0 mb)
Winds: from the SSE (150 degrees) at 3 MPH (3 knots; 1.5 m/s)
Visibility: 6 miles ( 9 km)
Ceiling: at least 12,000 feet AGL
Clouds: scattered clouds at 1700 feet AGL
Weather: no significant weather observed at this time

METAR text: VDPP 172030Z 13002KT 9000 SCT017 29/25 Q1007
Conditions at: VDPP (PHNOM-PENH/POCHE, KH) observed 2030 UTC 17 April 2019
Temperature: 29.0°C (84°F)
Dewpoint: 25.0°C (77°F) [RH = 79%]
Pressure (altimeter): 29.73 inches Hg (1007.0 mb)
Winds: from the SE (130 degrees) at 2 MPH (2 knots; 1.0 m/s)
Visibility: 6 miles ( 9 km)
Ceiling: at least 12,000 feet AGL
Clouds: scattered clouds at 1700 feet AGL
Weather: no significant weather observed at this time

METAR text: VDPP 172000Z 13002KT 9000 SCT017 29/25 Q1007
Conditions at: VDPP (PHNOM-PENH/POCHE, KH) observed 2000 UTC 17 April 2019
Temperature: 29.0°C (84°F)
Dewpoint: 25.0°C (77°F) [RH = 79%]
Pressure (altimeter): 29.73 inches Hg (1007.0 mb)
Winds: from the SE (130 degrees) at 2 MPH (2 knots; 1.0 m/s)
Visibility: 6 miles ( 9 km)
Ceiling: at least 12,000 feet AGL
Clouds: scattered clouds at 1700 feet AGL
Weather: no significant weather observed at this time

METAR text: VDPP 171930Z VRB02KT 9000 SCT017 30/25 Q1007
Conditions at: VDPP (PHNOM-PENH/POCHE, KH) observed 1930 UTC 17 April 2019
Temperature: 30.0°C (86°F)
Dewpoint: 25.0°C (77°F) [RH = 75%]
Pressure (altimeter): 29.73 inches Hg (1007.0 mb)
Winds: variable direction winds at 2 MPH (2 knots; 1.0 m/s)
Visibility: 6 miles ( 9 km)
Ceiling: at least 12,000 feet AGL
Clouds: scattered clouds at 1700 feet AGL
Weather: no significant weather observed at this time

METAR text: VDPP 171900Z VRB02KT 9000 SCT017 29/25 Q1007
Conditions at: VDPP (PHNOM-PENH/POCHE, KH) observed 1900 UTC 17 April 2019
Temperature: 29.0°C (84°F)
Dewpoint: 25.0°C (77°F) [RH = 79%]
Pressure (altimeter): 29.73 inches Hg (1007.0 mb)
Winds: variable direction winds at 2 MPH (2 knots; 1.0 m/s)
Visibility: 6 miles ( 9 km)
Ceiling: at least 12,000 feet AGL
Clouds: scattered clouds at 1700 feet AGL
Weather: no significant weather observed at this time

METAR text: VDPP 171830Z VRB02KT 9000 SCT017 30/25 Q1007
Conditions at: VDPP (PHNOM-PENH/POCHE, KH) observed 1830 UTC 17 April 2019
Temperature: 30.0°C (86°F)
Dewpoint: 25.0°C (77°F) [RH = 75%]
Pressure (altimeter): 29.73 inches Hg (1007.0 mb)
Winds: variable direction winds at 2 MPH (2 knots; 1.0 m/s)
Visibility: 6 miles ( 9 km)
Ceiling: at least 12,000 feet AGL
Clouds: scattered clouds at 1700 feet AGL
Weather: no significant weather observed at this time

METAR text: VDPP 171800Z 18004KT 9000 SCT017 30/25 Q1007
Conditions at: VDPP (PHNOM-PENH/POCHE, KH) observed 1800 UTC 17 April 2019
Temperature: 30.0°C (86°F)
Dewpoint: 25.0°C (77°F) [RH = 75%]
Pressure (altimeter): 29.73 inches Hg (1007.0 mb)
Winds: from the S (180 degrees) at 5 MPH (4 knots; 2.1 m/s)
Visibility: 6 miles ( 9 km)
Ceiling: at least 12,000 feet AGL
Clouds: scattered clouds at 1700 feet AGL
Weather: no significant weather observed at this time

METAR text: VDPP 171730Z 21004KT 9000 SCT017 30/25 Q1007
Conditions at: VDPP (PHNOM-PENH/POCHE, KH) observed 1730 UTC 17 April 2019
Temperature: 30.0°C (86°F)
Dewpoint: 25.0°C (77°F) [RH = 75%]
Pressure (altimeter): 29.73 inches Hg (1007.0 mb)
Winds: from the SSW (210 degrees) at 5 MPH (4 knots; 2.1 m/s)
Visibility: 6 miles ( 9 km)
Ceiling: at least 12,000 feet AGL
Clouds: scattered clouds at 1700 feet AGL
Weather: no significant weather observed at this time

METAR text: VDPP 171700Z 19004KT 9000 SCT017 30/25 Q1007
Conditions at: VDPP (PHNOM-PENH/POCHE, KH) observed 1700 UTC 17 April 2019
Temperature: 30.0°C (86°F)
Dewpoint: 25.0°C (77°F) [RH = 75%]
Pressure (altimeter): 29.73 inches Hg (1007.0 mb)
Winds: from the S (190 degrees) at 5 MPH (4 knots; 2.1 m/s)
Visibility: 6 miles ( 9 km)
Ceiling: at least 12,000 feet AGL
Clouds: scattered clouds at 1700 feet AGL
Weather: no significant weather observed at this time

METAR text: VDPP 171630Z 19005KT 9000 SCT017 30/25 Q1008
Conditions at: VDPP (PHNOM-PENH/POCHE, KH) observed 1630 UTC 17 April 2019
Temperature: 30.0°C (86°F)
Dewpoint: 25.0°C (77°F) [RH = 75%]
Pressure (altimeter): 29.76 inches Hg (1008.0 mb)
Winds: from the S (190 degrees) at 6 MPH (5 knots; 2.6 m/s)
Visibility: 6 miles ( 9 km)
Ceiling: at least 12,000 feet AGL
Clouds: scattered clouds at 1700 feet AGL
Weather: no significant weather observed at this time

METAR text: VDPP 171600Z 20005KT 150V210 9000 SCT017 FEW020CB 31/25 Q1008 CB/NE
Conditions at: VDPP (PHNOM-PENH/POCHE, KH) observed 1600 UTC 17 April 2019
Temperature: 31.0°C (88°F)
Dewpoint: 25.0°C (77°F) [RH = 71%]
Pressure (altimeter): 29.76 inches Hg (1008.0 mb)
Winds: from the SSW (200 degrees) at 6 MPH (5 knots; 2.6 m/s)
Visibility: 6 miles ( 9 km)
Ceiling: at least 12,000 feet AGL
Clouds: scattered clouds at 1700 feet AGL
few clouds at 2000 feet AGL
Weather: no significant weather observed at this time

METAR text: VDPP 171530Z 20007KT 9000 SCT017 FEW020CB 31/25 Q1009 CB/NE
Conditions at: VDPP (PHNOM-PENH/POCHE, KH) observed 1530 UTC 17 April 2019
Temperature: 31.0°C (88°F)
Dewpoint: 25.0°C (77°F) [RH = 71%]
Pressure (altimeter): 29.79 inches Hg (1009.0 mb)
Winds: from the SSW (200 degrees) at 8 MPH (7 knots; 3.6 m/s)
Visibility: 6 miles ( 9 km)
Ceiling: at least 12,000 feet AGL
Clouds: scattered clouds at 1700 feet AGL
few clouds at 2000 feet AGL
Weather: no significant weather observed at this time

METAR text: VDPP 171500Z 22005KT 200V260 9000 SCT017 FEW020CB 31/25 Q1009 CB/NE
Conditions at: VDPP (PHNOM-PENH/POCHE, KH) observed 1500 UTC 17 April 2019
Temperature: 31.0°C (88°F)
Dewpoint: 25.0°C (77°F) [RH = 71%]
Pressure (altimeter): 29.79 inches Hg (1009.0 mb)
Winds: from the SW (220 degrees) at 6 MPH (5 knots; 2.6 m/s)
Visibility: 6 miles ( 9 km)
Ceiling: at least 12,000 feet AGL
Clouds: scattered clouds at 1700 feet AGL
few clouds at 2000 feet AGL
Weather: no significant weather observed at this time

METAR text: VDPP 171430Z 23008KT 9000 SCT017 FEW020CB 31/25 Q1008 CB/NE
Conditions at: VDPP (PHNOM-PENH/POCHE, KH) observed 1430 UTC 17 April 2019
Temperature: 31.0°C (88°F)
Dewpoint: 25.0°C (77°F) [RH = 71%]
Pressure (altimeter): 29.76 inches Hg (1008.0 mb)
Winds: from the SW (230 degrees) at 9 MPH (8 knots; 4.1 m/s)
Visibility: 6 miles ( 9 km)
Ceiling: at least 12,000 feet AGL
Clouds: scattered clouds at 1700 feet AGL
few clouds at 2000 feet AGL
Weather: no significant weather observed at this time

METAR text: VDPP 171400Z 25006KT 9000 SCT017 FEW020CB 31/25 Q1007 CB/NE
Conditions at: VDPP (PHNOM-PENH/POCHE, KH) observed 1400 UTC 17 April 2019
Temperature: 31.0°C (88°F)
Dewpoint: 25.0°C (77°F) [RH = 71%]
Pressure (altimeter): 29.73 inches Hg (1007.0 mb)
Winds: from the WSW (250 degrees) at 7 MPH (6 knots; 3.1 m/s)
Visibility: 6 miles ( 9 km)
Ceiling: at least 12,000 feet AGL
Clouds: scattered clouds at 1700 feet AGL
few clouds at 2000 feet AGL
Weather: no significant weather observed at this time

METAR text: VDPP 171330Z 25006KT 220V280 9000 SCT017 FEW020CB 32/25 Q1007 CB/NE
Conditions at: VDPP (PHNOM-PENH/POCHE, KH) observed 1330 UTC 17 April 2019
Temperature: 32.0°C (90°F)
Dewpoint: 25.0°C (77°F) [RH = 67%]
Pressure (altimeter): 29.73 inches Hg (1007.0 mb)
Winds: from the WSW (250 degrees) at 7 MPH (6 knots; 3.1 m/s)
Visibility: 6 miles ( 9 km)
Ceiling: at least 12,000 feet AGL
Clouds: scattered clouds at 1700 feet AGL
few clouds at 2000 feet AGL
Weather: no significant weather observed at this time

METAR text: VDPP 171300Z 27006KT 240V300 9000 SCT017 FEW020CB 32/24 Q1007 CB/NE
Conditions at: VDPP (PHNOM-PENH/POCHE, KH) observed 1300 UTC 17 April 2019
Temperature: 32.0°C (90°F)
Dewpoint: 24.0°C (75°F) [RH = 63%]
Pressure (altimeter): 29.73 inches Hg (1007.0 mb)
Winds: from the W (270 degrees) at 7 MPH (6 knots; 3.1 m/s)
Visibility: 6 miles ( 9 km)
Ceiling: at least 12,000 feet AGL
Clouds: scattered clouds at 1700 feet AGL
few clouds at 2000 feet AGL
Weather: no significant weather observed at this time

METAR text: VDPP 171230Z VRB01KT 9000 SCT017 FEW020CB 33/24 Q1007 CB/NE
Conditions at: VDPP (PHNOM-PENH/POCHE, KH) observed 1230 UTC 17 April 2019
Temperature: 33.0°C (91°F)
Dewpoint: 24.0°C (75°F) [RH = 59%]
Pressure (altimeter): 29.73 inches Hg (1007.0 mb)
Winds: variable direction winds at 1 MPH (1 knots; 0.5 m/s)
Visibility: 6 miles ( 9 km)
Ceiling: at least 12,000 feet AGL
Clouds: scattered clouds at 1700 feet AGL
few clouds at 2000 feet AGL
Weather: no significant weather observed at this time

METAR text: VDPP 171200Z 22005KT 200V260 9000 SCT017 FEW020CB 33/24 Q1007 CB/NE
Conditions at: VDPP (PHNOM-PENH/POCHE, KH) observed 1200 UTC 17 April 2019
Temperature: 33.0°C (91°F)
Dewpoint: 24.0°C (75°F) [RH = 59%]
Pressure (altimeter): 29.73 inches Hg (1007.0 mb)
Winds: from the SW (220 degrees) at 6 MPH (5 knots; 2.6 m/s)
Visibility: 6 miles ( 9 km)
Ceiling: at least 12,000 feet AGL
Clouds: scattered clouds at 1700 feet AGL
few clouds at 2000 feet AGL
Weather: no significant weather observed at this time

METAR text: VDPP 171130Z 21006KT 9000 SCT017 33/24 Q1007
Conditions at: VDPP (PHNOM-PENH/POCHE, KH) observed 1130 UTC 17 April 2019
Temperature: 33.0°C (91°F)
Dewpoint: 24.0°C (75°F) [RH = 59%]
Pressure (altimeter): 29.73 inches Hg (1007.0 mb)
Winds: from the SSW (210 degrees) at 7 MPH (6 knots; 3.1 m/s)
Visibility: 6 miles ( 9 km)
Ceiling: at least 12,000 feet AGL
Clouds: scattered clouds at 1700 feet AGL
Weather: no significant weather observed at this time

METAR text: VDPP 171100Z 21006KT 180V240 9999 SCT017 SCT040 33/24 Q1006
Conditions at: VDPP (PHNOM-PENH/POCHE, KH) observed 1100 UTC 17 April 2019
Temperature: 33.0°C (91°F)
Dewpoint: 24.0°C (75°F) [RH = 59%]
Pressure (altimeter): 29.70 inches Hg (1006.0 mb)
Winds: from the SSW (210 degrees) at 7 MPH (6 knots; 3.1 m/s)
Visibility: 6 or more miles (10+ km)
Ceiling: at least 12,000 feet AGL
Clouds: scattered clouds at 1700 feet AGL
scattered clouds at 4000 feet AGL
Weather: no significant weather observed at this time

METAR text: VDPP 171030Z 20006KT 160V220 9999 SCT017 SCT040 33/24 Q1006
Conditions at: VDPP (PHNOM-PENH/POCHE, KH) observed 1030 UTC 17 April 2019
Temperature: 33.0°C (91°F)
Dewpoint: 24.0°C (75°F) [RH = 59%]
Pressure (altimeter): 29.70 inches Hg (1006.0 mb)
Winds: from the SSW (200 degrees) at 7 MPH (6 knots; 3.1 m/s)
Visibility: 6 or more miles (10+ km)
Ceiling: at least 12,000 feet AGL
Clouds: scattered clouds at 1700 feet AGL
scattered clouds at 4000 feet AGL
Weather: no significant weather observed at this time

METAR text: VDPP 171000Z 20008KT 180V240 9999 SCT017 FEW020CB 34/24 Q1005 CB:N
Conditions at: VDPP (PHNOM-PENH/POCHE, KH) observed 1000 UTC 17 April 2019
Temperature: 34.0°C (93°F)
Dewpoint: 24.0°C (75°F) [RH = 56%]
Pressure (altimeter): 29.68 inches Hg (1005.0 mb)
Winds: from the SSW (200 degrees) at 9 MPH (8 knots; 4.1 m/s)
Visibility: 6 or more miles (10+ km)
Ceiling: at least 12,000 feet AGL
Clouds: scattered clouds at 1700 feet AGL
few clouds at 2000 feet AGL
Weather: no significant weather observed at this time

METAR text: VDPP 170930Z 21007KT 9999 SCT017 FEW020CB 34/24 Q1005 CB:N/E
Conditions at: VDPP (PHNOM-PENH/POCHE, KH) observed 0930 UTC 17 April 2019
Temperature: 34.0°C (93°F)
Dewpoint: 24.0°C (75°F) [RH = 56%]
Pressure (altimeter): 29.68 inches Hg (1005.0 mb)
Winds: from the SSW (210 degrees) at 8 MPH (7 knots; 3.6 m/s)
Visibility: 6 or more miles (10+ km)
Ceiling: at least 12,000 feet AGL
Clouds: scattered clouds at 1700 feet AGL
few clouds at 2000 feet AGL
Weather: no significant weather observed at this time

METAR text: VDPP 170900Z 21008KT 180V250 9999 SCT017 FEW020CB 34/24 Q1005 CB:NW/E
Conditions at: VDPP (PHNOM-PENH/POCHE, KH) observed 0900 UTC 17 April 2019
Temperature: 34.0°C (93°F)
Dewpoint: 24.0°C (75°F) [RH = 56%]
Pressure (altimeter): 29.68 inches Hg (1005.0 mb)
Winds: from the SSW (210 degrees) at 9 MPH (8 knots; 4.1 m/s)
Visibility: 6 or more miles (10+ km)
Ceiling: at least 12,000 feet AGL
Clouds: scattered clouds at 1700 feet AGL
few clouds at 2000 feet AGL
Weather: no significant weather observed at this time

METAR text: VDPP 170830Z 22010KT 9999 SCT017 FEW020CB 34/23 Q1005 CB:NW
Conditions at: VDPP (PHNOM-PENH/POCHE, KH) observed 0830 UTC 17 April 2019
Temperature: 34.0°C (93°F)
Dewpoint: 23.0°C (73°F) [RH = 53%]
Pressure (altimeter): 29.68 inches Hg (1005.0 mb)
Winds: from the SW (220 degrees) at 12 MPH (10 knots; 5.1 m/s)
Visibility: 6 or more miles (10+ km)
Ceiling: at least 12,000 feet AGL
Clouds: scattered clouds at 1700 feet AGL
few clouds at 2000 feet AGL
Weather: no significant weather observed at this time

METAR text: VDPP 170800Z 23011KT 9999 SCT017 FEW020CB 33/23 Q1006 CB:NW
Conditions at: VDPP (PHNOM-PENH/POCHE, KH) observed 0800 UTC 17 April 2019
Temperature: 33.0°C (91°F)
Dewpoint: 23.0°C (73°F) [RH = 56%]
Pressure (altimeter): 29.70 inches Hg (1006.0 mb)
Winds: from the SW (230 degrees) at 13 MPH (11 knots; 5.7 m/s)
Visibility: 6 or more miles (10+ km)
Ceiling: at least 12,000 feet AGL
Clouds: scattered clouds at 1700 feet AGL
few clouds at 2000 feet AGL
Weather: no significant weather observed at this time

METAR text: VDPP 170730Z 17006KT 110V220 9999 SCT017 FEW020CB 37/23 Q1006 CB:SW/E
Conditions at: VDPP (PHNOM-PENH/POCHE, KH) observed 0730 UTC 17 April 2019
Temperature: 37.0°C (99°F)
Dewpoint: 23.0°C (73°F) [RH = 45%]
Pressure (altimeter): 29.70 inches Hg (1006.0 mb)
Winds: from the S (170 degrees) at 7 MPH (6 knots; 3.1 m/s)
Visibility: 6 or more miles (10+ km)
Ceiling: at least 12,000 feet AGL
Clouds: scattered clouds at 1700 feet AGL
few clouds at 2000 feet AGL
Weather: no significant weather observed at this time

METAR text: VDPP 170700Z 17007KT 100V210 9999 SCT017 FEW020CB 35/23 Q1007 CB:SW
Conditions at: VDPP (PHNOM-PENH/POCHE, KH) observed 0700 UTC 17 April 2019
Temperature: 35.0°C (95°F)
Dewpoint: 23.0°C (73°F) [RH = 50%]
Pressure (altimeter): 29.73 inches Hg (1007.0 mb)
Winds: from the S (170 degrees) at 8 MPH (7 knots; 3.6 m/s)
Visibility: 6 or more miles (10+ km)
Ceiling: at least 12,000 feet AGL
Clouds: scattered clouds at 1700 feet AGL
few clouds at 2000 feet AGL
Weather: no significant weather observed at this time

METAR text: VDPP 170630Z 16008KT 130V210 9999 SCT017 FEW020CB 36/24 Q1007 CB:SW
Conditions at: VDPP (PHNOM-PENH/POCHE, KH) observed 0630 UTC 17 April 2019
Temperature: 36.0°C (97°F)
Dewpoint: 24.0°C (75°F) [RH = 50%]
Pressure (altimeter): 29.73 inches Hg (1007.0 mb)
Winds: from the SSE (160 degrees) at 9 MPH (8 knots; 4.1 m/s)
Visibility: 6 or more miles (10+ km)
Ceiling: at least 12,000 feet AGL
Clouds: scattered clouds at 1700 feet AGL
few clouds at 2000 feet AGL
Weather: no significant weather observed at this time

Forecast for: VDPP (PHNOM-PENH/POCHE, KH)
Text: TAF VDPP 181700Z 1818/1912 20009KT 9999 SCT017
Forecast period: 1800 UTC 18 April 2019 to 1200 UTC 19 April 2019
Forecast type: FROM: standard forecast or significant change
Winds: from the SSW (200 degrees) at 10 MPH (9 knots; 4.6 m/s)
Visibility: 6 or more miles 10+ km)
Ceiling: at least 12,000 feet AGL
Clouds: scattered clouds at 1700 feet AGL
Weather: no significant weather forecast for this period
Text: TEMPO 1906/1911 SCT015 FEW017CB
Forecast period: 0600 to 1100 UTC 19 April 2019
Forecast type: TEMPORARY: The following changes expected for less than half the time period
Visibility: missing
Ceiling: at least 12,000 feet AGL
Clouds: scattered clouds at 1500 feet AGL
few clouds at 1700 feet AGL
Weather: no significant weather forecast for this period